sensor_id;sensor_type;location;lat;lon;timestamp;pressure;altitude;pressure_sealevel;temperature
41593;BMP180;28026;48.562;14.440;2023-08-21T00:01:17;94463.00;;;30.50
41593;BMP180;28026;48.562;14.440;2023-08-21T00:03:48;94469.00;;;30.40
41593;BMP180;28026;48.562;14.440;2023-08-21T00:06:19;94472.00;;;30.40
41593;BMP180;28026;48.562;14.440;2023-08-21T00:08:50;94467.00;;;30.30
41593;BMP180;28026;48.562;14.440;2023-08-21T00:11:21;94466.00;;;30.30
41593;BMP180;28026;48.562;14.440;2023-08-21T00:13:52;94468.00;;;30.20
41593;BMP180;28026;48.562;14.440;2023-08-21T00:16:22;94473.00;;;30.20
41593;BMP180;28026;48.562;14.440;2023-08-21T00:18:54;94462.00;;;30.10
41593;BMP180;28026;48.562;14.440;2023-08-21T00:21:25;94461.00;;;30.10
41593;BMP180;28026;48.562;14.440;2023-08-21T00:23:56;94463.00;;;30.20
41593;BMP180;28026;48.562;14.440;2023-08-21T00:26:27;94454.00;;;30.10
41593;BMP180;28026;48.562;14.440;2023-08-21T00:28:58;94455.00;;;30.10
41593;BMP180;28026;48.562;14.440;2023-08-21T00:31:28;94453.00;;;30.10
41593;BMP180;28026;48.562;14.440;2023-08-21T00:33:59;94453.00;;;30.10
41593;BMP180;28026;48.562;14.440;2023-08-21T00:36:30;94443.00;;;30.00
41593;BMP180;28026;48.562;14.440;2023-08-21T00:39:01;94453.00;;;29.90
41593;BMP180;28026;48.562;14.440;2023-08-21T00:41:32;94452.00;;;29.90
41593;BMP180;28026;48.562;14.440;2023-08-21T00:44:04;94450.00;;;29.90
41593;BMP180;28026;48.562;14.440;2023-08-21T00:46:35;94443.00;;;29.80
41593;BMP180;28026;48.562;14.440;2023-08-21T00:49:06;94450.00;;;29.80
41593;BMP180;28026;48.562;14.440;2023-08-21T00:51:37;94454.00;;;29.80
41593;BMP180;28026;48.562;14.440;2023-08-21T00:54:09;94454.00;;;29.70
41593;BMP180;28026;48.562;14.440;2023-08-21T00:56:40;94455.00;;;29.70
41593;BMP180;28026;48.562;14.440;2023-08-21T00:59:12;94461.00;;;29.60
41593;BMP180;28026;48.562;14.440;2023-08-21T01:01:44;94458.00;;;29.60
41593;BMP180;28026;48.562;14.440;2023-08-21T01:04:15;94451.00;;;29.60
41593;BMP180;28026;48.562;14.440;2023-08-21T01:06:49;94463.00;;;29.50
41593;BMP180;28026;48.562;14.440;2023-08-21T01:10:04;94454.00;;;29.50
41593;BMP180;28026;48.562;14.440;2023-08-21T01:12:56;94457.00;;;29.50
41593;BMP180;28026;48.562;14.440;2023-08-21T01:15:38;94455.00;;;29.40
41593;BMP180;28026;48.562;14.440;2023-08-21T01:18:10;94442.00;;;29.40
41593;BMP180;28026;48.562;14.440;2023-08-21T01:20:42;94450.00;;;29.40
41593;BMP180;28026;48.562;14.440;2023-08-21T01:26:04;94453.00;;;29.40
41593;BMP180;28026;48.562;14.440;2023-08-21T01:28:36;94452.00;;;29.40
41593;BMP180;28026;48.562;14.440;2023-08-21T01:31:26;94453.00;;;29.40
41593;BMP180;28026;48.562;14.440;2023-08-21T01:34:06;94453.00;;;29.40
41593;BMP180;28026;48.562;14.440;2023-08-21T01:36:42;94456.00;;;29.40
41593;BMP180;28026;48.562;14.440;2023-08-21T01:39:14;94461.00;;;29.40
41593;BMP180;28026;48.562;14.440;2023-08-21T01:41:45;94468.00;;;29.40
41593;BMP180;28026;48.562;14.440;2023-08-21T01:44:15;94455.00;;;29.30
41593;BMP180;28026;48.562;14.440;2023-08-21T01:46:46;94455.00;;;29.30
41593;BMP180;28026;48.562;14.440;2023-08-21T01:49:17;94456.00;;;29.30
41593;BMP180;28026;48.562;14.440;2023-08-21T01:51:49;94456.00;;;29.30
41593;BMP180;28026;48.562;14.440;2023-08-21T01:54:20;94455.00;;;29.30
41593;BMP180;28026;48.562;14.440;2023-08-21T01:56:51;94461.00;;;29.30
41593;BMP180;28026;48.562;14.440;2023-08-21T01:59:24;94454.00;;;29.30
41593;BMP180;28026;48.562;14.440;2023-08-21T02:01:55;94464.00;;;29.30
41593;BMP180;28026;48.562;14.440;2023-08-21T02:04:26;94460.00;;;29.30
41593;BMP180;28026;48.562;14.440;2023-08-21T02:06:57;94451.00;;;29.30
41593;BMP180;28026;48.562;14.440;2023-08-21T02:09:28;94454.00;;;29.30
41593;BMP180;28026;48.562;14.440;2023-08-21T02:11:58;94450.00;;;29.30
41593;BMP180;28026;48.562;14.440;2023-08-21T02:14:29;94454.00;;;29.30
41593;BMP180;28026;48.562;14.440;2023-08-21T02:17:00;94442.00;;;29.20
41593;BMP180;28026;48.562;14.440;2023-08-21T02:19:32;94450.00;;;29.20
41593;BMP180;28026;48.562;14.440;2023-08-21T02:22:03;94454.00;;;29.10
41593;BMP180;28026;48.562;14.440;2023-08-21T02:24:34;94450.00;;;29.10
41593;BMP180;28026;48.562;14.440;2023-08-21T02:27:05;94450.00;;;29.00
41593;BMP180;28026;48.562;14.440;2023-08-21T02:29:36;94448.00;;;29.00
41593;BMP180;28026;48.562;14.440;2023-08-21T02:32:07;94450.00;;;29.00
41593;BMP180;28026;48.562;14.440;2023-08-21T02:34:37;94448.00;;;29.00
41593;BMP180;28026;48.562;14.440;2023-08-21T02:37:10;94450.00;;;28.90
41593;BMP180;28026;48.562;14.440;2023-08-21T02:39:40;94443.00;;;28.90
41593;BMP180;28026;48.562;14.440;2023-08-21T02:42:11;94447.00;;;28.90
41593;BMP180;28026;48.562;14.440;2023-08-21T02:44:42;94445.00;;;28.80
41593;BMP180;28026;48.562;14.440;2023-08-21T02:47:13;94441.00;;;28.80
41593;BMP180;28026;48.562;14.440;2023-08-21T02:49:44;94446.00;;;28.80
41593;BMP180;28026;48.562;14.440;2023-08-21T02:52:15;94447.00;;;28.80
41593;BMP180;28026;48.562;14.440;2023-08-21T02:54:46;94440.00;;;28.80
41593;BMP180;28026;48.562;14.440;2023-08-21T02:57:16;94438.00;;;28.80
41593;BMP180;28026;48.562;14.440;2023-08-21T02:59:47;94439.00;;;28.70
41593;BMP180;28026;48.562;14.440;2023-08-21T03:02:19;94426.00;;;28.70
41593;BMP180;28026;48.562;14.440;2023-08-21T03:04:50;94436.00;;;28.70
41593;BMP180;28026;48.562;14.440;2023-08-21T03:07:21;94435.00;;;28.60
41593;BMP180;28026;48.562;14.440;2023-08-21T03:09:52;94428.00;;;28.60
41593;BMP180;28026;48.562;14.440;2023-08-21T03:12:23;94423.00;;;28.60
41593;BMP180;28026;48.562;14.440;2023-08-21T03:14:55;94427.00;;;28.60
41593;BMP180;28026;48.562;14.440;2023-08-21T03:17:25;94433.00;;;28.60
41593;BMP180;28026;48.562;14.440;2023-08-21T03:19:56;94428.00;;;28.60
41593;BMP180;28026;48.562;14.440;2023-08-21T03:22:27;94421.00;;;28.50
41593;BMP180;28026;48.562;14.440;2023-08-21T03:24:59;94419.00;;;28.50
41593;BMP180;28026;48.562;14.440;2023-08-21T03:27:29;94422.00;;;28.50
41593;BMP180;28026;48.562;14.440;2023-08-21T03:30:00;94422.00;;;28.50
41593;BMP180;28026;48.562;14.440;2023-08-21T03:32:32;94422.00;;;28.50
41593;BMP180;28026;48.562;14.440;2023-08-21T03:35:04;94421.00;;;28.50
41593;BMP180;28026;48.562;14.440;2023-08-21T03:37:35;94428.00;;;28.50
41593;BMP180;28026;48.562;14.440;2023-08-21T03:40:07;94421.00;;;28.50
41593;BMP180;28026;48.562;14.440;2023-08-21T03:42:38;94423.00;;;28.50
41593;BMP180;28026;48.562;14.440;2023-08-21T03:45:10;94434.00;;;28.50
41593;BMP180;28026;48.562;14.440;2023-08-21T03:47:41;94433.00;;;28.50
41593;BMP180;28026;48.562;14.440;2023-08-21T03:50:12;94427.00;;;28.50
41593;BMP180;28026;48.562;14.440;2023-08-21T03:52:43;94425.00;;;28.50
41593;BMP180;28026;48.562;14.440;2023-08-21T03:55:14;94422.00;;;28.40
41593;BMP180;28026;48.562;14.440;2023-08-21T03:57:45;94414.00;;;28.40
41593;BMP180;28026;48.562;14.440;2023-08-21T04:00:16;94433.00;;;28.40
41593;BMP180;28026;48.562;14.440;2023-08-21T04:02:47;94425.00;;;28.30
41593;BMP180;28026;48.562;14.440;2023-08-21T04:05:18;94435.00;;;28.30
41593;BMP180;28026;48.562;14.440;2023-08-21T04:07:49;94428.00;;;28.30
41593;BMP180;28026;48.562;14.440;2023-08-21T04:10:20;94439.00;;;28.30
41593;BMP180;28026;48.562;14.440;2023-08-21T04:12:50;94435.00;;;28.30
41593;BMP180;28026;48.562;14.440;2023-08-21T04:15:21;94436.00;;;28.30
41593;BMP180;28026;48.562;14.440;2023-08-21T04:17:52;94437.00;;;28.30
41593;BMP180;28026;48.562;14.440;2023-08-21T04:20:23;94438.00;;;28.30
41593;BMP180;28026;48.562;14.440;2023-08-21T04:22:55;94435.00;;;28.30
41593;BMP180;28026;48.562;14.440;2023-08-21T04:25:26;94440.00;;;28.30
41593;BMP180;28026;48.562;14.440;2023-08-21T04:27:56;94438.00;;;28.30
41593;BMP180;28026;48.562;14.440;2023-08-21T04:30:27;94439.00;;;28.30
41593;BMP180;28026;48.562;14.440;2023-08-21T04:32:58;94432.00;;;28.30
41593;BMP180;28026;48.562;14.440;2023-08-21T04:35:29;94432.00;;;28.30
41593;BMP180;28026;48.562;14.440;2023-08-21T04:38:00;94429.00;;;28.30
41593;BMP180;28026;48.562;14.440;2023-08-21T04:40:31;94433.00;;;28.30
41593;BMP180;28026;48.562;14.440;2023-08-21T04:43:02;94421.00;;;28.40
41593;BMP180;28026;48.562;14.440;2023-08-21T04:45:33;94435.00;;;28.40
41593;BMP180;28026;48.562;14.440;2023-08-21T04:48:05;94426.00;;;28.40
41593;BMP180;28026;48.562;14.440;2023-08-21T04:50:36;94440.00;;;28.40
41593;BMP180;28026;48.562;14.440;2023-08-21T04:53:07;94439.00;;;28.50
41593;BMP180;28026;48.562;14.440;2023-08-21T04:55:39;94434.00;;;28.50
41593;BMP180;28026;48.562;14.440;2023-08-21T04:58:11;94445.00;;;28.50
41593;BMP180;28026;48.562;14.440;2023-08-21T05:00:41;94441.00;;;28.60
41593;BMP180;28026;48.562;14.440;2023-08-21T05:03:12;94441.00;;;28.60
41593;BMP180;28026;48.562;14.440;2023-08-21T05:05:55;94439.00;;;28.70
41593;BMP180;28026;48.562;14.440;2023-08-21T05:08:27;94436.00;;;28.70
41593;BMP180;28026;48.562;14.440;2023-08-21T05:10:59;94435.00;;;28.80
41593;BMP180;28026;48.562;14.440;2023-08-21T05:13:31;94433.00;;;28.90
41593;BMP180;28026;48.562;14.440;2023-08-21T05:16:02;94442.00;;;29.00
41593;BMP180;28026;48.562;14.440;2023-08-21T05:18:33;94443.00;;;29.00
41593;BMP180;28026;48.562;14.440;2023-08-21T05:21:03;94445.00;;;29.10
41593;BMP180;28026;48.562;14.440;2023-08-21T05:23:34;94449.00;;;29.20
41593;BMP180;28026;48.562;14.440;2023-08-21T05:26:05;94447.00;;;29.30
41593;BMP180;28026;48.562;14.440;2023-08-21T05:28:36;94441.00;;;29.30
41593;BMP180;28026;48.562;14.440;2023-08-21T05:31:07;94449.00;;;29.30
41593;BMP180;28026;48.562;14.440;2023-08-21T05:33:38;94442.00;;;29.40
41593;BMP180;28026;48.562;14.440;2023-08-21T05:36:09;94435.00;;;29.50
41593;BMP180;28026;48.562;14.440;2023-08-21T05:38:40;94435.00;;;29.60
41593;BMP180;28026;48.562;14.440;2023-08-21T05:41:11;94441.00;;;29.70
41593;BMP180;28026;48.562;14.440;2023-08-21T05:43:42;94441.00;;;29.90
41593;BMP180;28026;48.562;14.440;2023-08-21T05:46:13;94438.00;;;30.00
41593;BMP180;28026;48.562;14.440;2023-08-21T05:48:43;94449.00;;;30.20
41593;BMP180;28026;48.562;14.440;2023-08-21T05:51:14;94458.00;;;30.20
41593;BMP180;28026;48.562;14.440;2023-08-21T05:53:45;94460.00;;;30.20
41593;BMP180;28026;48.562;14.440;2023-08-21T05:56:16;94456.00;;;30.20
41593;BMP180;28026;48.562;14.440;2023-08-21T05:58:47;94461.00;;;30.40
41593;BMP180;28026;48.562;14.440;2023-08-21T06:01:18;94450.00;;;30.50
41593;BMP180;28026;48.562;14.440;2023-08-21T06:03:49;94461.00;;;30.70
41593;BMP180;28026;48.562;14.440;2023-08-21T06:06:19;94460.00;;;30.80
41593;BMP180;28026;48.562;14.440;2023-08-21T06:08:50;94465.00;;;30.90
41593;BMP180;28026;48.562;14.440;2023-08-21T06:11:21;94457.00;;;31.00
41593;BMP180;28026;48.562;14.440;2023-08-21T06:13:52;94460.00;;;31.20
41593;BMP180;28026;48.562;14.440;2023-08-21T06:16:23;94456.00;;;31.40
41593;BMP180;28026;48.562;14.440;2023-08-21T06:18:54;94457.00;;;31.50
41593;BMP180;28026;48.562;14.440;2023-08-21T06:21:24;94455.00;;;31.60
41593;BMP180;28026;48.562;14.440;2023-08-21T06:23:55;94454.00;;;31.70
41593;BMP180;28026;48.562;14.440;2023-08-21T06:26:26;94457.00;;;31.90
41593;BMP180;28026;48.562;14.440;2023-08-21T06:28:57;94449.00;;;32.00
41593;BMP180;28026;48.562;14.440;2023-08-21T06:31:28;94456.00;;;32.10
41593;BMP180;28026;48.562;14.440;2023-08-21T06:33:59;94460.00;;;32.20
41593;BMP180;28026;48.562;14.440;2023-08-21T06:36:30;94464.00;;;32.20
41593;BMP180;28026;48.562;14.440;2023-08-21T06:39:01;94461.00;;;32.40
41593;BMP180;28026;48.562;14.440;2023-08-21T06:41:31;94457.00;;;32.50
41593;BMP180;28026;48.562;14.440;2023-08-21T06:44:02;94456.00;;;32.60
41593;BMP180;28026;48.562;14.440;2023-08-21T06:46:33;94455.00;;;32.80
41593;BMP180;28026;48.562;14.440;2023-08-21T06:49:05;94453.00;;;32.90
41593;BMP180;28026;48.562;14.440;2023-08-21T06:51:36;94455.00;;;33.10
41593;BMP180;28026;48.562;14.440;2023-08-21T06:54:07;94456.00;;;33.20
41593;BMP180;28026;48.562;14.440;2023-08-21T06:56:38;94456.00;;;33.40
41593;BMP180;28026;48.562;14.440;2023-08-21T06:59:08;94456.00;;;33.50
41593;BMP180;28026;48.562;14.440;2023-08-21T07:01:39;94460.00;;;33.60
41593;BMP180;28026;48.562;14.440;2023-08-21T07:04:11;94458.00;;;33.80
41593;BMP180;28026;48.562;14.440;2023-08-21T07:06:41;94453.00;;;34.00
41593;BMP180;28026;48.562;14.440;2023-08-21T07:09:12;94458.00;;;34.20
41593;BMP180;28026;48.562;14.440;2023-08-21T07:11:43;94460.00;;;34.40
41593;BMP180;28026;48.562;14.440;2023-08-21T07:14:14;94464.00;;;34.50
41593;BMP180;28026;48.562;14.440;2023-08-21T07:16:45;94464.00;;;34.60
41593;BMP180;28026;48.562;14.440;2023-08-21T07:19:17;94468.00;;;34.80
41593;BMP180;28026;48.562;14.440;2023-08-21T07:21:48;94465.00;;;35.00
41593;BMP180;28026;48.562;14.440;2023-08-21T07:24:18;94462.00;;;35.10
41593;BMP180;28026;48.562;14.440;2023-08-21T07:26:49;94467.00;;;35.20
41593;BMP180;28026;48.562;14.440;2023-08-21T07:29:20;94463.00;;;35.30
41593;BMP180;28026;48.562;14.440;2023-08-21T07:31:51;94468.00;;;35.30
41593;BMP180;28026;48.562;14.440;2023-08-21T07:34:22;94468.00;;;35.30
41593;BMP180;28026;48.562;14.440;2023-08-21T07:36:53;94468.00;;;35.30
41593;BMP180;28026;48.562;14.440;2023-08-21T07:39:23;94466.00;;;35.40
41593;BMP180;28026;48.562;14.440;2023-08-21T07:41:54;94467.00;;;35.50
41593;BMP180;28026;48.562;14.440;2023-08-21T07:44:26;94467.00;;;35.70
41593;BMP180;28026;48.562;14.440;2023-08-21T07:46:57;94467.00;;;35.90
41593;BMP180;28026;48.562;14.440;2023-08-21T07:49:28;94467.00;;;36.00
41593;BMP180;28026;48.562;14.440;2023-08-21T07:51:59;94471.00;;;36.20
41593;BMP180;28026;48.562;14.440;2023-08-21T07:54:30;94479.00;;;36.30
41593;BMP180;28026;48.562;14.440;2023-08-21T07:57:01;94471.00;;;36.40
41593;BMP180;28026;48.562;14.440;2023-08-21T07:59:34;94482.00;;;36.50
41593;BMP180;28026;48.562;14.440;2023-08-21T08:02:06;94483.00;;;36.50
41593;BMP180;28026;48.562;14.440;2023-08-21T08:04:38;94481.00;;;36.50
41593;BMP180;28026;48.562;14.440;2023-08-21T08:07:09;94481.00;;;36.60
41593;BMP180;28026;48.562;14.440;2023-08-21T08:09:40;94482.00;;;36.70
41593;BMP180;28026;48.562;14.440;2023-08-21T08:12:11;94483.00;;;36.80
41593;BMP180;28026;48.562;14.440;2023-08-21T08:14:42;94473.00;;;36.80
41593;BMP180;28026;48.562;14.440;2023-08-21T08:17:13;94475.00;;;36.90
41593;BMP180;28026;48.562;14.440;2023-08-21T08:19:44;94479.00;;;37.00
41593;BMP180;28026;48.562;14.440;2023-08-21T08:22:14;94476.00;;;37.00
41593;BMP180;28026;48.562;14.440;2023-08-21T08:24:45;94478.00;;;37.20
41593;BMP180;28026;48.562;14.440;2023-08-21T08:27:16;94480.00;;;37.30
41593;BMP180;28026;48.562;14.440;2023-08-21T08:29:47;94483.00;;;37.30
41593;BMP180;28026;48.562;14.440;2023-08-21T08:32:18;94476.00;;;37.30
41593;BMP180;28026;48.562;14.440;2023-08-21T08:34:49;94483.00;;;37.50
41593;BMP180;28026;48.562;14.440;2023-08-21T08:37:20;94484.00;;;37.60
41593;BMP180;28026;48.562;14.440;2023-08-21T08:39:51;94489.00;;;37.80
41593;BMP180;28026;48.562;14.440;2023-08-21T08:42:22;94484.00;;;37.80
41593;BMP180;28026;48.562;14.440;2023-08-21T08:44:55;94490.00;;;37.90
41593;BMP180;28026;48.562;14.440;2023-08-21T08:47:33;94489.00;;;38.00
41593;BMP180;28026;48.562;14.440;2023-08-21T08:50:07;94488.00;;;38.20
41593;BMP180;28026;48.562;14.440;2023-08-21T08:52:42;94490.00;;;38.40
41593;BMP180;28026;48.562;14.440;2023-08-21T08:55:15;94481.00;;;38.60
41593;BMP180;28026;48.562;14.440;2023-08-21T08:57:45;94487.00;;;38.70
41593;BMP180;28026;48.562;14.440;2023-08-21T09:00:16;94479.00;;;38.80
41593;BMP180;28026;48.562;14.440;2023-08-21T09:02:48;94476.00;;;38.80
41593;BMP180;28026;48.562;14.440;2023-08-21T09:05:19;94480.00;;;38.90
41593;BMP180;28026;48.562;14.440;2023-08-21T09:08:23;94483.00;;;39.00
41593;BMP180;28026;48.562;14.440;2023-08-21T09:10:54;94479.00;;;39.10
41593;BMP180;28026;48.562;14.440;2023-08-21T09:13:25;94475.00;;;39.10
41593;BMP180;28026;48.562;14.440;2023-08-21T09:15:56;94480.00;;;39.20
41593;BMP180;28026;48.562;14.440;2023-08-21T09:18:29;94480.00;;;39.40
41593;BMP180;28026;48.562;14.440;2023-08-21T09:21:02;94482.00;;;39.50
41593;BMP180;28026;48.562;14.440;2023-08-21T09:23:33;94477.00;;;39.60
41593;BMP180;28026;48.562;14.440;2023-08-21T09:26:03;94472.00;;;39.60
41593;BMP180;28026;48.562;14.440;2023-08-21T09:28:35;94478.00;;;39.80
41593;BMP180;28026;48.562;14.440;2023-08-21T09:31:06;94469.00;;;39.80
41593;BMP180;28026;48.562;14.440;2023-08-21T09:33:37;94474.00;;;40.00
41593;BMP180;28026;48.562;14.440;2023-08-21T09:36:09;94471.00;;;40.00
41593;BMP180;28026;48.562;14.440;2023-08-21T09:38:45;94474.00;;;40.00
41593;BMP180;28026;48.562;14.440;2023-08-21T09:41:23;94471.00;;;40.00
41593;BMP180;28026;48.562;14.440;2023-08-21T09:43:59;94465.00;;;40.20
41593;BMP180;28026;48.562;14.440;2023-08-21T09:46:31;94471.00;;;40.40
41593;BMP180;28026;48.562;14.440;2023-08-21T09:49:02;94469.00;;;40.50
41593;BMP180;28026;48.562;14.440;2023-08-21T09:51:33;94472.00;;;40.60
41593;BMP180;28026;48.562;14.440;2023-08-21T09:54:05;94460.00;;;40.80
41593;BMP180;28026;48.562;14.440;2023-08-21T09:56:37;94466.00;;;40.90
41593;BMP180;28026;48.562;14.440;2023-08-21T09:59:09;94453.00;;;40.90
41593;BMP180;28026;48.562;14.440;2023-08-21T10:01:40;94462.00;;;40.70
41593;BMP180;28026;48.562;14.440;2023-08-21T10:04:13;94465.00;;;40.70
41593;BMP180;28026;48.562;14.440;2023-08-21T10:06:45;94456.00;;;40.70
41593;BMP180;28026;48.562;14.440;2023-08-21T10:09:18;94458.00;;;40.70
41593;BMP180;28026;48.562;14.440;2023-08-21T10:11:53;94456.00;;;40.80
41593;BMP180;28026;48.562;14.440;2023-08-21T10:14:27;94452.00;;;41.00
41593;BMP180;28026;48.562;14.440;2023-08-21T10:16:58;94457.00;;;41.10
41593;BMP180;28026;48.562;14.440;2023-08-21T10:19:32;94454.00;;;41.20
41593;BMP180;28026;48.562;14.440;2023-08-21T10:22:03;94455.00;;;41.20
41593;BMP180;28026;48.562;14.440;2023-08-21T10:24:37;94453.00;;;41.20
41593;BMP180;28026;48.562;14.440;2023-08-21T10:27:09;94447.00;;;41.20
41593;BMP180;28026;48.562;14.440;2023-08-21T10:29:57;94452.00;;;41.50
41593;BMP180;28026;48.562;14.440;2023-08-21T10:32:28;94451.00;;;41.80
41593;BMP180;28026;48.562;14.440;2023-08-21T10:35:01;94457.00;;;42.00
41593;BMP180;28026;48.562;14.440;2023-08-21T10:37:31;94462.00;;;42.00
41593;BMP180;28026;48.562;14.440;2023-08-21T10:40:03;94453.00;;;42.10
41593;BMP180;28026;48.562;14.440;2023-08-21T10:42:41;94458.00;;;42.30
41593;BMP180;28026;48.562;14.440;2023-08-21T10:45:13;94458.00;;;42.30
41593;BMP180;28026;48.562;14.440;2023-08-21T10:47:44;94453.00;;;42.20
41593;BMP180;28026;48.562;14.440;2023-08-21T10:50:17;94455.00;;;42.10
41593;BMP180;28026;48.562;14.440;2023-08-21T10:52:52;94455.00;;;42.10
41593;BMP180;28026;48.562;14.440;2023-08-21T10:55:24;94451.00;;;41.90
41593;BMP180;28026;48.562;14.440;2023-08-21T10:57:54;94452.00;;;42.00
41593;BMP180;28026;48.562;14.440;2023-08-21T11:00:25;94454.00;;;41.90
41593;BMP180;28026;48.562;14.440;2023-08-21T11:02:56;94460.00;;;42.00
41593;BMP180;28026;48.562;14.440;2023-08-21T11:05:27;94456.00;;;42.30
41593;BMP180;28026;48.562;14.440;2023-08-21T11:07:59;94453.00;;;42.50
41593;BMP180;28026;48.562;14.440;2023-08-21T11:10:31;94450.00;;;42.80
41593;BMP180;28026;48.562;14.440;2023-08-21T11:13:06;94439.00;;;43.10
41593;BMP180;28026;48.562;14.440;2023-08-21T11:15:38;94445.00;;;43.30
41593;BMP180;28026;48.562;14.440;2023-08-21T11:18:09;94436.00;;;43.30
41593;BMP180;28026;48.562;14.440;2023-08-21T11:20:40;94445.00;;;43.20
41593;BMP180;28026;48.562;14.440;2023-08-21T11:23:11;94439.00;;;43.30
41593;BMP180;28026;48.562;14.440;2023-08-21T11:25:42;94440.00;;;43.30
41593;BMP180;28026;48.562;14.440;2023-08-21T11:28:16;94432.00;;;43.50
41593;BMP180;28026;48.562;14.440;2023-08-21T11:30:47;94428.00;;;43.60
41593;BMP180;28026;48.562;14.440;2023-08-21T11:33:18;94435.00;;;43.50
41593;BMP180;28026;48.562;14.440;2023-08-21T11:35:50;94434.00;;;43.60
41593;BMP180;28026;48.562;14.440;2023-08-21T11:38:25;94435.00;;;43.60
41593;BMP180;28026;48.562;14.440;2023-08-21T11:41:00;94434.00;;;43.70
41593;BMP180;28026;48.562;14.440;2023-08-21T11:43:41;94433.00;;;44.00
41593;BMP180;28026;48.562;14.440;2023-08-21T11:46:12;94436.00;;;44.10
41593;BMP180;28026;48.562;14.440;2023-08-21T11:48:44;94426.00;;;44.30
41593;BMP180;28026;48.562;14.440;2023-08-21T11:51:15;94433.00;;;44.60
41593;BMP180;28026;48.562;14.440;2023-08-21T11:53:48;94425.00;;;44.70
41593;BMP180;28026;48.562;14.440;2023-08-21T11:56:19;94423.00;;;44.60
41593;BMP180;28026;48.562;14.440;2023-08-21T11:58:50;94423.00;;;44.30
41593;BMP180;28026;48.562;14.440;2023-08-21T12:01:22;94429.00;;;44.00
41593;BMP180;28026;48.562;14.440;2023-08-21T12:03:53;94438.00;;;44.00
41593;BMP180;28026;48.562;14.440;2023-08-21T12:06:27;94425.00;;;43.90
41593;BMP180;28026;48.562;14.440;2023-08-21T12:09:02;94423.00;;;44.20
41593;BMP180;28026;48.562;14.440;2023-08-21T12:11:35;94424.00;;;44.30
41593;BMP180;28026;48.562;14.440;2023-08-21T12:14:08;94429.00;;;44.40
41593;BMP180;28026;48.562;14.440;2023-08-21T12:16:39;94418.00;;;44.40
41593;BMP180;28026;48.562;14.440;2023-08-21T12:19:10;94415.00;;;44.60
41593;BMP180;28026;48.562;14.440;2023-08-21T12:21:42;94414.00;;;44.80
41593;BMP180;28026;48.562;14.440;2023-08-21T12:24:13;94415.00;;;44.90
41593;BMP180;28026;48.562;14.440;2023-08-21T12:26:44;94418.00;;;44.80
41593;BMP180;28026;48.562;14.440;2023-08-21T12:29:15;94413.00;;;44.60
41593;BMP180;28026;48.562;14.440;2023-08-21T12:31:46;94408.00;;;44.70
41593;BMP180;28026;48.562;14.440;2023-08-21T12:34:17;94403.00;;;44.80
41593;BMP180;28026;48.562;14.440;2023-08-21T12:36:50;94408.00;;;44.70
41593;BMP180;28026;48.562;14.440;2023-08-21T12:39:22;94415.00;;;44.30
41593;BMP180;28026;48.562;14.440;2023-08-21T12:41:53;94412.00;;;43.90
41593;BMP180;28026;48.562;14.440;2023-08-21T12:44:24;94402.00;;;43.70
41593;BMP180;28026;48.562;14.440;2023-08-21T12:46:54;94406.00;;;43.50
41593;BMP180;28026;48.562;14.440;2023-08-21T12:49:26;94408.00;;;43.10
41593;BMP180;28026;48.562;14.440;2023-08-21T12:51:57;94402.00;;;43.30
41593;BMP180;28026;48.562;14.440;2023-08-21T12:54:28;94402.00;;;43.30
41593;BMP180;28026;48.562;14.440;2023-08-21T12:56:58;94398.00;;;43.40
41593;BMP180;28026;48.562;14.440;2023-08-21T12:59:29;94402.00;;;43.20
41593;BMP180;28026;48.562;14.440;2023-08-21T13:02:00;94393.00;;;43.10
41593;BMP180;28026;48.562;14.440;2023-08-21T13:04:32;94397.00;;;42.90
41593;BMP180;28026;48.562;14.440;2023-08-21T13:07:02;94392.00;;;42.80
41593;BMP180;28026;48.562;14.440;2023-08-21T13:09:34;94395.00;;;42.70
41593;BMP180;28026;48.562;14.440;2023-08-21T13:12:05;94395.00;;;42.60
41593;BMP180;28026;48.562;14.440;2023-08-21T13:14:36;94396.00;;;42.60
41593;BMP180;28026;48.562;14.440;2023-08-21T13:17:07;94399.00;;;42.50
41593;BMP180;28026;48.562;14.440;2023-08-21T13:19:38;94390.00;;;42.20
41593;BMP180;28026;48.562;14.440;2023-08-21T13:22:09;94391.00;;;42.20
41593;BMP180;28026;48.562;14.440;2023-08-21T13:24:39;94393.00;;;42.20
41593;BMP180;28026;48.562;14.440;2023-08-21T13:27:10;94388.00;;;42.10
41593;BMP180;28026;48.562;14.440;2023-08-21T13:29:41;94390.00;;;42.00
41593;BMP180;28026;48.562;14.440;2023-08-21T13:32:13;94384.00;;;42.00
41593;BMP180;28026;48.562;14.440;2023-08-21T13:34:44;94385.00;;;42.00
41593;BMP180;28026;48.562;14.440;2023-08-21T13:37:15;94378.00;;;41.80
41593;BMP180;28026;48.562;14.440;2023-08-21T13:39:46;94368.00;;;41.70
41593;BMP180;28026;48.562;14.440;2023-08-21T13:42:17;94374.00;;;41.50
41593;BMP180;28026;48.562;14.440;2023-08-21T13:44:48;94375.00;;;41.40
41593;BMP180;28026;48.562;14.440;2023-08-21T13:47:19;94372.00;;;41.40
41593;BMP180;28026;48.562;14.440;2023-08-21T13:49:50;94368.00;;;41.40
41593;BMP180;28026;48.562;14.440;2023-08-21T13:52:21;94369.00;;;41.30
41593;BMP180;28026;48.562;14.440;2023-08-21T13:54:51;94365.00;;;41.50
41593;BMP180;28026;48.562;14.440;2023-08-21T13:57:22;94367.00;;;41.50
41593;BMP180;28026;48.562;14.440;2023-08-21T13:59:53;94365.00;;;41.40
41593;BMP180;28026;48.562;14.440;2023-08-21T14:02:24;94360.00;;;41.30
41593;BMP180;28026;48.562;14.440;2023-08-21T14:04:55;94357.00;;;41.20
41593;BMP180;28026;48.562;14.440;2023-08-21T14:07:26;94361.00;;;41.30
41593;BMP180;28026;48.562;14.440;2023-08-21T14:09:57;94356.00;;;41.30
41593;BMP180;28026;48.562;14.440;2023-08-21T14:12:29;94359.00;;;41.20
41593;BMP180;28026;48.562;14.440;2023-08-21T14:15:01;94361.00;;;41.20
41593;BMP180;28026;48.562;14.440;2023-08-21T14:17:32;94369.00;;;41.00
41593;BMP180;28026;48.562;14.440;2023-08-21T14:20:04;94359.00;;;40.80
41593;BMP180;28026;48.562;14.440;2023-08-21T14:22:38;94358.00;;;40.80
41593;BMP180;28026;48.562;14.440;2023-08-21T14:25:09;94352.00;;;40.80